Time;durP1;ratioP1;P1;durP2;ratioP2;P2;SDS_P1;SDS_P2;PMS_P1;PMS_P2;Temp;Humidity;BMP_temperature;BMP_pressure;BME280_temperature;BME280_humidity;BME280_pressure;Samples;Min_cycle;Max_cycle;Signal;HPM_P1;HPM_P2
2022/03/05 00:00:35;;;;;;;30.75;23.33;;;-1.80;99.90;;;;;;5016801;28;20029;-74
2022/03/05 00:03:01;;;;;;;30.98;26.02;;;-1.80;99.90;;;;;;5018309;28;20044;-74
2022/03/05 00:05:27;;;;;;;31.15;24.52;;;-2.00;99.90;;;;;;5017059;28;20042;-74
2022/03/05 00:07:53;;;;;;;30.38;25.42;;;-2.00;99.90;;;;;;5018334;28;20025;-74
2022/03/05 00:10:19;;;;;;;30.77;25.17;;;-1.90;99.90;;;;;;5017920;28;20022;-75
2022/03/05 00:12:46;;;;;;;29.75;24.42;;;-1.80;99.90;;;;;;5016883;28;20108;-75
2022/03/05 00:15:11;;;;;;;32.78;25.75;;;-2.00;99.90;;;;;;5016850;28;20033;-75
2022/03/05 00:17:37;;;;;;;33.33;27.58;;;-1.90;99.90;;;;;;5018120;28;20498;-75
2022/03/05 00:20:05;;;;;;;25.98;21.35;;;-2.00;99.90;;;;;;5017958;28;20034;-75
2022/03/05 00:22:30;;;;;;;27.90;20.27;;;-1.40;99.90;;;;;;5018058;28;20578;-74
2022/03/05 00:24:56;;;;;;;30.15;24.08;;;-1.40;99.90;;;;;;5021914;28;20052;-75
2022/03/05 00:27:21;;;;;;;30.95;25.80;;;-1.50;99.90;;;;;;5018208;28;20037;-75
2022/03/05 00:29:47;;;;;;;37.75;28.75;;;-1.60;99.90;;;;;;5016833;28;20107;-75
2022/03/05 00:32:13;;;;;;;32.63;25.85;;;-1.70;99.90;;;;;;5017848;28;20026;-75
2022/03/05 00:34:38;;;;;;;28.85;24.02;;;-1.90;99.90;;;;;;5018038;28;20033;-75
2022/03/05 00:37:05;;;;;;;32.95;26.55;;;-1.90;99.90;;;;;;5018014;28;20021;-75
2022/03/05 00:39:31;;;;;;;31.27;25.80;;;-1.90;99.90;;;;;;5017967;28;20014;-75
2022/03/05 00:41:57;;;;;;;29.13;23.60;;;-2.00;99.90;;;;;;5016697;28;20033;-75
2022/03/05 00:44:22;;;;;;;26.10;22.40;;;-2.10;99.90;;;;;;5017941;28;20030;-74
2022/03/05 00:46:48;;;;;;;29.45;22.75;;;-1.90;99.90;;;;;;5017927;28;20034;-75
2022/03/05 00:49:13;;;;;;;28.75;23.70;;;-1.90;99.90;;;;;;5016493;28;20049;-75
2022/03/05 00:51:39;;;;;;;24.17;20.17;;;-2.00;99.90;;;;;;5017680;28;20026;-75
2022/03/05 00:54:04;;;;;;;25.30;20.98;;;-1.80;99.90;;;;;;5016561;28;20026;-74
2022/03/05 00:56:30;;;;;;;25.40;21.73;;;-1.60;99.90;;;;;;5016465;28;20048;-74
2022/03/05 00:58:55;;;;;;;25.85;22.08;;;-1.70;99.90;;;;;;5017665;28;20028;-74
2022/03/05 01:01:21;;;;;;;25.13;21.15;;;-1.70;99.90;;;;;;5017789;28;20390;-74
2022/03/05 01:03:46;;;;;;;25.60;21.45;;;-1.80;99.90;;;;;;5016595;28;20036;-73
2022/03/05 01:06:12;;;;;;;25.85;21.77;;;-1.80;99.90;;;;;;5017307;28;20045;-74
2022/03/05 01:08:38;;;;;;;27.85;22.15;;;-1.70;99.90;;;;;;5014109;28;20030;-74
2022/03/05 01:11:04;;;;;;;25.00;21.55;;;-1.80;99.90;;;;;;5014548;28;20076;-74
2022/03/05 01:13:29;;;;;;;26.98;20.33;;;-1.70;99.90;;;;;;5014702;28;20030;-74
2022/03/05 01:15:55;;;;;;;21.00;18.70;;;-1.80;99.90;;;;;;5014707;28;20018;-74
2022/03/05 01:18:21;;;;;;;24.13;19.08;;;-1.40;99.90;;;;;;5014530;28;20032;-74
2022/03/05 01:20:46;;;;;;;21.48;19.10;;;-1.20;99.90;;;;;;5014279;28;20402;-75
2022/03/05 01:23:12;;;;;;;25.80;20.20;;;-1.20;99.90;;;;;;5014610;28;20026;-75
2022/03/05 01:25:38;;;;;;;21.73;19.05;;;-1.40;99.90;;;;;;5014438;28;20026;-74
2022/03/05 01:28:04;;;;;;;24.95;20.20;;;-1.50;99.90;;;;;;5014534;28;20361;-74
2022/03/05 01:30:29;;;;;;;21.27;18.45;;;-1.60;99.90;;;;;;5014141;28;20109;-74
2022/03/05 01:32:55;;;;;;;22.35;19.15;;;-1.50;99.90;;;;;;5014276;28;20030;-74
2022/03/05 01:35:20;;;;;;;26.80;21.85;;;-1.60;99.90;;;;;;5014507;28;20097;-75
2022/03/05 01:37:46;;;;;;;28.08;22.77;;;-1.40;99.90;;;;;;5012941;28;20028;-75
2022/03/05 01:40:11;;;;;;;26.83;21.17;;;-1.40;99.90;;;;;;5014121;28;20099;-75
2022/03/05 01:42:37;;;;;;;21.63;18.70;;;-1.30;99.90;;;;;;5014070;28;20029;-74
2022/03/05 01:45:03;;;;;;;21.63;18.42;;;-1.20;99.90;;;;;;5012907;28;20080;-74
2022/03/05 01:47:29;;;;;;;21.90;18.48;;;-1.40;99.90;;;;;;5013971;28;20030;-74
2022/03/05 01:49:55;;;;;;;21.98;19.40;;;-1.50;99.90;;;;;;5012714;28;20364;-75
2022/03/05 01:52:20;;;;;;;24.05;19.48;;;-1.50;99.90;;;;;;5013846;28;20087;-73
2022/03/05 01:54:47;;;;;;;21.85;18.95;;;-1.50;99.90;;;;;;5013912;28;20026;-74
2022/03/05 01:57:12;;;;;;;23.00;18.45;;;-1.30;99.90;;;;;;5013904;28;20026;-74
2022/03/05 01:59:38;;;;;;;23.90;19.08;;;-1.70;99.90;;;;;;5013729;28;20076;-74
2022/03/05 02:02:04;;;;;;;23.08;19.05;;;-1.70;99.90;;;;;;5013538;28;20030;-73
2022/03/05 02:04:30;;;;;;;24.25;19.35;;;-1.60;99.90;;;;;;5013665;28;20480;-73
2022/03/05 02:06:55;;;;;;;23.77;19.67;;;-1.80;99.90;;;;;;5013583;28;20488;-73
2022/03/05 02:09:21;;;;;;;23.20;19.05;;;-1.80;99.90;;;;;;5013670;28;20040;-73
2022/03/05 02:11:47;;;;;;;20.88;18.02;;;-1.70;99.90;;;;;;5013175;28;20672;-74
2022/03/05 02:14:17;;;;;;;23.55;18.85;;;-1.90;99.90;;;;;;5013638;28;20032;-74
2022/03/05 02:16:44;;;;;;;23.70;19.20;;;-1.60;99.90;;;;;;5013482;28;20029;-74
2022/03/05 02:19:09;;;;;;;25.08;19.48;;;-1.80;99.90;;;;;;5013237;28;20029;-76
2022/03/05 02:21:36;;;;;;;25.75;17.67;;;-1.70;99.90;;;;;;5013225;28;20034;-74
2022/03/05 02:24:02;;;;;;;22.52;18.65;;;-1.50;99.90;;;;;;5013420;28;20030;-73
2022/03/05 02:26:27;;;;;;;24.65;18.63;;;-1.50;99.90;;;;;;5026465;28;20085;-74
2022/03/05 02:28:53;;;;;;;22.85;18.90;;;-1.60;99.90;;;;;;5013122;28;20042;-75
2022/03/05 02:31:18;;;;;;;23.08;18.85;;;-1.70;99.90;;;;;;5012303;28;20056;-74
2022/03/05 02:33:44;;;;;;;24.73;19.80;;;-1.70;99.90;;;;;;5011951;28;20025;-74
2022/03/05 02:36:10;;;;;;;27.42;18.15;;;-1.80;99.90;;;;;;5011916;28;20022;-74
2022/03/05 02:38:36;;;;;;;23.08;19.23;;;-2.00;99.90;;;;;;5012982;28;20026;-74
2022/03/05 02:41:02;;;;;;;23.77;19.48;;;-2.00;99.90;;;;;;5012308;28;20688;-74
2022/03/05 02:43:28;;;;;;;22.38;19.35;;;-2.00;99.90;;;;;;5013085;28;20029;-75
2022/03/05 02:45:54;;;;;;;22.48;19.05;;;-1.90;99.90;;;;;;5011600;28;20034;-73
2022/03/05 02:48:20;;;;;;;25.30;20.23;;;-2.00;99.90;;;;;;5012989;28;20038;-73
2022/03/05 02:50:47;;;;;;;23.92;17.17;;;-2.10;99.90;;;;;;5012513;28;20113;-73
2022/03/05 02:53:13;;;;;;;23.15;19.50;;;-2.10;99.90;;;;;;5012693;28;20042;-74
2022/03/05 02:55:40;;;;;;;22.70;18.90;;;-2.00;99.90;;;;;;5012676;28;20022;-73
2022/03/05 02:58:06;;;;;;;25.40;21.00;;;-2.30;99.90;;;;;;5012689;28;20022;-73
2022/03/05 03:00:32;;;;;;;24.95;20.92;;;-2.50;99.90;;;;;;5012400;28;20028;-74
2022/03/05 03:02:58;;;;;;;25.08;21.33;;;-2.40;99.90;;;;;;5012696;28;20025;-73
2022/03/05 03:05:23;;;;;;;24.38;20.10;;;-2.20;99.90;;;;;;5012658;28;20032;-75
2022/03/05 03:07:49;;;;;;;25.95;21.23;;;-2.20;99.90;;;;;;5012580;28;20049;-75
2022/03/05 03:10:16;;;;;;;26.35;20.80;;;-2.20;99.90;;;;;;5012266;28;20044;-75
2022/03/05 03:12:42;;;;;;;27.85;21.00;;;-2.30;99.90;;;;;;5012447;28;20025;-75
2022/03/05 03:15:11;;;;;;;25.35;21.60;;;-2.20;99.90;;;;;;5012560;28;20064;-75
2022/03/05 03:17:47;;;;;;;27.70;21.60;;;-2.50;99.90;;;;;;5012574;28;20490;-73
2022/03/05 03:20:15;;;;;;;24.80;19.83;;;-2.50;99.90;;;;;;5012250;28;20026;-75
2022/03/05 03:22:41;;;;;;;26.75;21.60;;;-2.50;99.90;;;;;;5011324;28;20423;-74
2022/03/05 03:25:07;;;;;;;26.45;20.45;;;-2.40;99.90;;;;;;5012459;28;20088;-74
2022/03/05 03:27:34;;;;;;;28.67;21.63;;;-2.60;99.90;;;;;;5012383;28;20025;-74
2022/03/05 03:29:59;;;;;;;24.90;19.63;;;-2.70;99.90;;;;;;5011122;28;20049;-75
2022/03/05 03:32:25;;;;;;;27.33;21.55;;;-2.70;99.90;;;;;;5022964;28;20535;-74
2022/03/05 03:34:50;;;;;;;24.80;20.58;;;-2.70;99.90;;;;;;5012819;28;20407;-74
2022/03/05 03:37:16;;;;;;;25.20;20.00;;;-2.60;99.90;;;;;;5012172;28;20493;-74
2022/03/05 03:39:42;;;;;;;26.55;19.33;;;-2.50;99.90;;;;;;5010699;28;20387;-75
2022/03/05 03:42:07;;;;;;;26.55;21.98;;;-2.50;99.90;;;;;;5011939;28;20030;-73
2022/03/05 03:44:33;;;;;;;25.70;20.38;;;-2.50;99.90;;;;;;5012023;28;20487;-73
2022/03/05 03:46:58;;;;;;;25.15;20.77;;;-2.40;99.90;;;;;;5012074;28;20045;-73
2022/03/05 03:49:24;;;;;;;23.88;20.02;;;-2.50;99.90;;;;;;5012039;28;20088;-73
2022/03/05 03:51:50;;;;;;;26.40;21.88;;;-2.50;99.90;;;;;;5011645;28;20026;-73
2022/03/05 03:54:15;;;;;;;25.83;20.55;;;-2.70;99.90;;;;;;5011903;28;20022;-72
2022/03/05 03:56:41;;;;;;;26.45;20.70;;;-2.70;99.90;;;;;;5011939;28;20475;-72
2022/03/05 03:59:07;;;;;;;26.13;21.00;;;-2.60;99.90;;;;;;5011779;28;20022;-72
2022/03/05 04:01:33;;;;;;;47.95;29.85;;;-2.70;99.90;;;;;;5011764;28;20030;-72
2022/03/05 04:03:58;;;;;;;58.40;40.10;;;-2.80;99.90;;;;;;5011819;28;20038;-72
2022/03/05 04:06:24;;;;;;;35.85;28.60;;;-3.00;99.90;;;;;;5011880;28;20026;-72
2022/03/05 04:08:49;;;;;;;27.52;21.77;;;-2.60;99.90;;;;;;5011768;28;20030;-73
2022/03/05 04:11:20;;;;;;;29.13;22.98;;;-2.40;99.90;;;;;;5011592;28;20037;-73
2022/03/05 04:13:47;;;;;;;25.50;20.58;;;-2.50;99.90;;;;;;5011697;28;20078;-73
2022/03/05 04:16:13;;;;;;;26.83;21.13;;;-2.50;99.90;;;;;;5011731;28;20018;-73
2022/03/05 04:18:39;;;;;;;25.88;21.85;;;-2.50;99.90;;;;;;5011306;28;20480;-74
2022/03/05 04:21:07;;;;;;;27.98;21.77;;;-2.50;99.90;;;;;;5011356;28;20033;-74
2022/03/05 04:23:33;;;;;;;26.30;20.58;;;-2.50;99.90;;;;;;5011683;28;20480;-74
2022/03/05 04:25:59;;;;;;;28.00;22.27;;;-2.60;99.90;;;;;;5011562;28;20034;-74
2022/03/05 04:28:28;;;;;;;26.38;21.00;;;-2.50;99.90;;;;;;5011634;28;20037;-74
2022/03/05 04:30:54;;;;;;;27.15;20.00;;;-2.40;99.90;;;;;;5010041;28;20080;-74
2022/03/05 04:33:20;;;;;;;25.92;21.15;;;-2.50;99.90;;;;;;5011565;28;20022;-74
2022/03/05 04:35:45;;;;;;;28.33;21.65;;;-2.40;99.90;;;;;;5010306;28;20120;-74
2022/03/05 04:38:11;;;;;;;26.02;21.20;;;-2.60;99.90;;;;;;5011632;28;20097;-75
2022/03/05 04:40:36;;;;;;;28.30;21.55;;;-2.70;99.90;;;;;;5011347;28;20051;-76
2022/03/05 04:43:03;;;;;;;27.27;21.77;;;-2.60;99.90;;;;;;5013621;28;20026;-74
2022/03/05 04:45:28;;;;;;;27.77;21.30;;;-2.50;99.90;;;;;;5015319;28;20026;-74
2022/03/05 04:47:54;;;;;;;27.05;20.80;;;-2.40;99.90;;;;;;5015148;28;20022;-74
2022/03/05 04:50:20;;;;;;;30.20;22.10;;;-2.40;99.90;;;;;;5014798;28;20105;-74
2022/03/05 04:52:45;;;;;;;27.15;21.52;;;-2.50;99.90;;;;;;5015046;28;20511;-74
2022/03/05 04:55:11;;;;;;;28.88;18.92;;;-2.50;99.90;;;;;;5015177;28;20491;-74
2022/03/05 04:57:36;;;;;;;27.45;22.08;;;-2.50;99.90;;;;;;5014854;28;20029;-74
2022/03/05 05:00:05;;;;;;;25.92;20.85;;;-2.50;99.90;;;;;;5014796;28;20538;-75
2022/03/05 05:02:31;;;;;;;24.58;20.63;;;-2.60;99.90;;;;;;5014787;28;20145;-74
2022/03/05 05:04:57;;;;;;;29.45;21.67;;;-2.50;99.90;;;;;;5013347;28;20479;-74
2022/03/05 05:07:22;;;;;;;24.35;19.77;;;-2.50;99.90;;;;;;5014799;28;20030;-74
2022/03/05 05:09:48;;;;;;;26.60;21.80;;;-2.50;99.90;;;;;;5014799;28;20069;-75
2022/03/05 05:12:14;;;;;;;26.10;21.95;;;-2.40;99.90;;;;;;5014530;28;20030;-74
2022/03/05 05:14:40;;;;;;;27.83;22.38;;;-2.40;99.90;;;;;;5014798;28;20026;-75
2022/03/05 05:17:06;;;;;;;27.50;22.23;;;-2.40;99.90;;;;;;5004610;28;20026;-75
2022/03/05 05:19:31;;;;;;;27.95;22.50;;;-2.10;99.90;;;;;;5013244;28;20357;-75
2022/03/05 05:21:59;;;;;;;28.67;22.30;;;-2.20;99.90;;;;;;5014367;28;20033;-75
2022/03/05 05:24:27;;;;;;;28.92;22.05;;;-2.30;99.90;;;;;;5014499;28;20468;-74
2022/03/05 05:26:54;;;;;;;27.02;22.42;;;-2.20;99.90;;;;;;5014334;28;20026;-74
2022/03/05 05:29:21;;;;;;;28.60;22.92;;;-2.10;99.90;;;;;;5037781;23;20053;-75
2022/03/05 05:31:46;;;;;;;27.90;21.52;;;-2.10;99.90;;;;;;5026367;28;20030;-75
2022/03/05 05:34:12;;;;;;;28.02;19.13;;;-2.10;99.90;;;;;;5026880;28;20036;-74
2022/03/05 05:36:38;;;;;;;27.67;21.85;;;-2.00;99.90;;;;;;5021122;28;20049;-74
2022/03/05 05:39:08;;;;;;;29.10;22.50;;;-2.00;99.90;;;;;;5014203;28;20479;-74
2022/03/05 05:41:35;;;;;;;25.40;21.08;;;-2.10;99.90;;;;;;5020264;28;20402;-75
2022/03/05 05:44:03;;;;;;;29.05;21.95;;;-2.00;99.90;;;;;;5031761;28;20029;-74
2022/03/05 05:46:29;;;;;;;28.13;18.88;;;-2.00;99.90;;;;;;5022124;28;20025;-74
2022/03/05 05:48:56;;;;;;;26.00;20.58;;;-1.90;99.90;;;;;;5028799;28;20025;-73
2022/03/05 05:51:22;;;;;;;26.38;20.58;;;-1.90;99.90;;;;;;5013771;28;20061;-72
2022/03/05 05:53:47;;;;;;;26.80;21.40;;;-1.80;99.90;;;;;;5014969;28;20033;-73
2022/03/05 05:56:13;;;;;;;29.52;22.55;;;-1.70;99.90;;;;;;5024221;28;20041;-72
2022/03/05 05:58:39;;;;;;;25.92;21.38;;;-1.70;99.90;;;;;;5013876;28;20472;-72
2022/03/05 06:01:04;;;;;;;28.27;21.65;;;-1.80;99.90;;;;;;5012274;28;20022;-73
2022/03/05 06:03:30;;;;;;;28.73;21.33;;;-1.80;99.90;;;;;;5027061;28;20017;-74
2022/03/05 06:05:59;;;;;;;28.70;21.67;;;-1.70;99.90;;;;;;5013658;28;20092;-73
2022/03/05 06:08:25;;;;;;;28.90;22.38;;;-1.60;99.90;;;;;;5014180;28;20360;-73
2022/03/05 06:10:54;;;;;;;31.52;23.10;;;-1.60;99.90;;;;;;5012065;28;20030;-74
2022/03/05 06:13:20;;;;;;;28.70;22.50;;;-1.50;99.90;;;;;;5015802;28;20022;-74
2022/03/05 06:15:46;;;;;;;26.77;21.05;;;-1.50;99.90;;;;;;5013711;28;20049;-73
2022/03/05 06:18:12;;;;;;;28.83;21.55;;;-1.50;99.90;;;;;;5013618;28;20770;-74
2022/03/05 06:20:37;;;;;;;27.85;21.50;;;-1.50;99.90;;;;;;5020810;28;20386;-73
2022/03/05 06:23:03;;;;;;;55.63;41.15;;;-1.50;99.90;;;;;;5020091;28;20509;-73
2022/03/05 06:25:29;;;;;;;30.25;22.48;;;-1.40;99.90;;;;;;5032076;28;20025;-73
2022/03/05 06:27:54;;;;;;;30.45;22.23;;;-1.40;99.90;;;;;;5016227;28;20036;-73
2022/03/05 06:30:20;;;;;;;27.05;21.63;;;-1.40;99.90;;;;;;5012936;28;20041;-73
2022/03/05 06:32:46;;;;;;;30.17;23.33;;;-1.30;99.90;;;;;;5013216;28;20041;-74
2022/03/05 06:35:11;;;;;;;27.40;21.58;;;-1.20;99.90;;;;;;5020266;28;20032;-73
2022/03/05 06:37:37;;;;;;;31.40;21.33;;;-1.20;99.90;;;;;;5018525;28;20053;-74
2022/03/05 06:40:04;;;;;;;27.10;20.63;;;-1.10;99.90;;;;;;5024431;28;20435;-73
2022/03/05 06:42:30;;;;;;;28.52;23.90;;;-1.10;99.90;;;;;;5026137;28;20030;-75
2022/03/05 06:44:55;;;;;;;27.95;21.67;;;-1.00;99.90;;;;;;5021410;28;20511;-75
2022/03/05 06:47:21;;;;;;;27.45;21.45;;;-1.00;99.90;;;;;;5018159;28;20045;-75
2022/03/05 06:49:46;;;;;;;27.88;20.63;;;-0.90;99.90;;;;;;5023333;28;20029;-75
2022/03/05 06:52:12;;;;;;;26.45;19.67;;;-0.80;99.90;;;;;;5027169;28;20025;-74
2022/03/05 06:54:38;;;;;;;28.10;20.10;;;-0.70;99.90;;;;;;5024928;28;20025;-75
2022/03/05 06:57:04;;;;;;;27.38;19.25;;;-0.50;99.90;;;;;;5025941;28;20104;-75
2022/03/05 06:59:30;;;;;;;24.95;18.45;;;-0.40;99.90;;;;;;5011556;28;20029;-74
2022/03/05 07:01:55;;;;;;;25.15;18.73;;;-0.40;99.90;;;;;;5025705;28;20022;-74
2022/03/05 07:04:21;;;;;;;24.05;18.83;;;-0.40;99.90;;;;;;5019718;28;20422;-74
2022/03/05 07:06:47;;;;;;;26.27;19.45;;;-0.30;99.90;;;;;;5018874;28;20612;-74
2022/03/05 07:09:12;;;;;;;25.67;19.80;;;-0.30;99.90;;;;;;5023773;28;20057;-74
2022/03/05 07:11:38;;;;;;;26.10;20.65;;;-0.30;99.90;;;;;;5024687;28;20077;-72
2022/03/05 07:14:04;;;;;;;25.00;20.33;;;-0.20;99.90;;;;;;5032178;28;20380;-74
2022/03/05 07:16:29;;;;;;;26.80;19.27;;;-0.20;99.90;;;;;;5018894;28;20119;-75
2022/03/05 07:18:55;;;;;;;25.67;18.75;;;-0.10;99.90;;;;;;5025162;28;20026;-74
2022/03/05 07:21:20;;;;;;;24.02;19.02;;;0.00;99.90;;;;;;5013681;28;20494;-74
2022/03/05 07:23:46;;;;;;;25.08;19.05;;;0.00;99.90;;;;;;5010698;28;20029;-74
2022/03/05 07:26:11;;;;;;;32.05;25.73;;;0.10;99.90;;;;;;5011900;28;20529;-74
2022/03/05 07:28:37;;;;;;;23.20;19.48;;;0.10;99.90;;;;;;5012285;28;20033;-73
2022/03/05 07:31:02;;;;;;;25.52;19.10;;;0.10;99.90;;;;;;5025040;28;20043;-74
2022/03/05 07:33:28;;;;;;;29.92;22.27;;;-0.10;99.90;;;;;;5020113;28;20025;-74
2022/03/05 07:35:54;;;;;;;25.48;20.50;;;-0.10;99.90;;;;;;5017164;28;20053;-73
2022/03/05 07:38:20;;;;;;;24.30;19.83;;;-0.10;99.90;;;;;;5020205;28;20017;-73
2022/03/05 07:40:45;;;;;;;27.00;19.52;;;-0.10;99.90;;;;;;5015710;28;20064;-75
2022/03/05 07:43:14;;;;;;;23.45;19.60;;;0.00;99.90;;;;;;5019818;28;20509;-75
2022/03/05 07:45:39;;;;;;;27.73;20.88;;;0.00;99.90;;;;;;5019233;28;20522;-75
2022/03/05 07:48:05;;;;;;;23.70;18.85;;;0.10;99.90;;;;;;5020000;28;20053;-76
2022/03/05 07:50:31;;;;;;;27.73;22.00;;;0.10;99.90;;;;;;5017456;28;20037;-76
2022/03/05 07:52:56;;;;;;;52.47;38.10;;;0.30;99.90;;;;;;5024062;28;20066;-75
2022/03/05 07:55:22;;;;;;;34.72;24.77;;;0.20;99.90;;;;;;5011608;28;20084;-75
2022/03/05 07:57:48;;;;;;;54.58;35.97;;;0.30;99.90;;;;;;5019512;28;20406;-74
2022/03/05 08:00:14;;;;;;;52.78;35.58;;;0.30;99.90;;;;;;5017060;28;20069;-74
2022/03/05 08:02:39;;;;;;;59.35;40.38;;;0.30;99.90;;;;;;5019741;28;20072;-74
2022/03/05 08:05:05;;;;;;;38.55;27.67;;;0.30;99.90;;;;;;5018314;28;20125;-76
2022/03/05 08:07:31;;;;;;;39.10;27.85;;;0.40;99.90;;;;;;5025402;28;20029;-74
2022/03/05 08:09:57;;;;;;;39.72;29.30;;;0.40;99.90;;;;;;5017053;28;20022;-76
2022/03/05 08:12:22;;;;;;;36.65;26.70;;;0.50;99.90;;;;;;5013235;28;20116;-75
2022/03/05 08:14:48;;;;;;;26.63;20.63;;;0.60;99.90;;;;;;5020464;28;20018;-74
2022/03/05 08:17:14;;;;;;;23.75;18.65;;;0.60;99.90;;;;;;5013334;28;20034;-74
2022/03/05 08:19:40;;;;;;;23.27;18.52;;;0.70;99.90;;;;;;5015480;28;20053;-74
2022/03/05 08:22:06;;;;;;;23.20;16.35;;;0.70;99.90;;;;;;5015099;28;20037;-74
2022/03/05 08:24:31;;;;;;;25.15;17.90;;;0.90;99.90;;;;;;5012861;28;20034;-75
2022/03/05 08:26:57;;;;;;;24.35;17.58;;;1.00;99.90;;;;;;5013304;28;20116;-74
2022/03/05 08:29:22;;;;;;;23.40;17.75;;;1.10;99.90;;;;;;5017376;28;20052;-75
2022/03/05 08:31:48;;;;;;;23.50;17.83;;;1.10;99.90;;;;;;5015077;28;20471;-74
2022/03/05 08:34:13;;;;;;;21.98;17.38;;;1.10;99.90;;;;;;5015235;28;20475;-75
2022/03/05 08:36:39;;;;;;;23.35;17.02;;;1.20;99.90;;;;;;5014146;28;20026;-75
2022/03/05 08:39:04;;;;;;;22.33;17.92;;;1.20;99.90;;;;;;5013729;28;20029;-75
2022/03/05 08:41:30;;;;;;;22.95;17.33;;;1.20;99.90;;;;;;5014937;28;20022;-75
2022/03/05 08:43:55;;;;;;;24.02;17.73;;;1.30;99.90;;;;;;5014994;28;20030;-75
2022/03/05 08:46:21;;;;;;;22.77;17.45;;;1.30;99.90;;;;;;5014872;28;20113;-74
2022/03/05 08:48:46;;;;;;;22.70;17.85;;;1.40;99.90;;;;;;5014818;28;20038;-75
2022/03/05 08:51:12;;;;;;;25.35;19.73;;;1.60;99.90;;;;;;5013357;28;20034;-74
2022/03/05 08:53:38;;;;;;;22.45;17.85;;;1.60;99.90;;;;;;5013589;28;20080;-74
2022/03/05 08:56:04;;;;;;;22.35;17.38;;;1.60;99.90;;;;;;5014766;28;20018;-74
2022/03/05 08:58:29;;;;;;;22.90;18.30;;;1.60;99.90;;;;;;5015539;28;20119;-74
2022/03/05 09:00:59;;;;;;;25.05;17.77;;;1.60;99.90;;;;;;5019739;28;20037;-75
2022/03/05 09:03:25;;;;;;;24.13;17.10;;;1.80;99.90;;;;;;5014913;28;20017;-76
2022/03/05 09:05:50;;;;;;;25.73;18.27;;;2.00;99.90;;;;;;5014927;28;20026;-76
2022/03/05 09:08:16;;;;;;;20.90;16.48;;;2.20;99.90;;;;;;5015652;28;20502;-75
2022/03/05 09:10:42;;;;;;;22.17;17.05;;;2.00;99.90;;;;;;5034044;28;20028;-75
2022/03/05 09:13:08;;;;;;;20.70;16.67;;;2.20;99.90;;;;;;5034253;28;20032;-75
2022/03/05 09:15:34;;;;;;;23.48;17.45;;;2.20;99.90;;;;;;5033129;28;20022;-75
2022/03/05 09:17:59;;;;;;;20.38;16.05;;;2.30;99.90;;;;;;5034638;28;20028;-75
2022/03/05 09:20:25;;;;;;;19.73;16.83;;;2.20;99.90;;;;;;5032652;28;20061;-75
2022/03/05 09:22:50;;;;;;;19.88;16.15;;;2.20;99.90;;;;;;5034711;28;20113;-75
2022/03/05 09:25:16;;;;;;;19.23;15.80;;;2.30;99.90;;;;;;5026682;28;20030;-75
2022/03/05 09:27:42;;;;;;;21.05;16.90;;;2.40;99.90;;;;;;5013441;28;20364;-75
2022/03/05 09:30:08;;;;;;;21.23;16.65;;;2.60;99.90;;;;;;5012890;28;20041;-75
2022/03/05 09:32:34;;;;;;;19.02;15.27;;;2.50;99.90;;;;;;5014635;28;20132;-77
2022/03/05 09:35:00;;;;;;;18.98;16.08;;;2.50;99.90;;;;;;5019759;28;20062;-77
2022/03/05 09:37:28;;;;;;;21.83;16.23;;;2.50;99.90;;;;;;5014111;28;20025;-74
2022/03/05 09:39:54;;;;;;;21.70;15.82;;;2.60;99.90;;;;;;5013739;28;20018;-74
2022/03/05 09:42:19;;;;;;;20.55;16.42;;;2.60;99.90;;;;;;5027237;28;20025;-74
2022/03/05 09:44:45;;;;;;;21.30;16.40;;;2.70;99.90;;;;;;5032580;28;20029;-75
2022/03/05 09:47:11;;;;;;;22.92;15.75;;;2.60;99.90;;;;;;5032450;28;20489;-75
2022/03/05 09:49:38;;;;;;;19.10;14.80;;;2.70;99.90;;;;;;5033668;28;20368;-75
2022/03/05 09:52:05;;;;;;;23.60;15.52;;;2.50;99.90;;;;;;5033297;28;20021;-75
2022/03/05 09:54:30;;;;;;;21.98;16.55;;;2.90;99.90;;;;;;5032323;28;20049;-75
2022/03/05 09:56:56;;;;;;;24.58;16.67;;;2.90;99.90;;;;;;5033553;28;20053;-74
2022/03/05 09:59:21;;;;;;;20.00;15.77;;;3.00;99.90;;;;;;5033450;28;20372;-74
2022/03/05 10:01:47;;;;;;;21.05;15.80;;;3.00;99.90;;;;;;5033271;28;20029;-74
2022/03/05 10:04:32;;;;;;;20.42;15.73;;;3.00;99.90;;;;;;5033527;28;20040;-74
2022/03/05 10:07:13;;;;;;;29.08;20.80;;;3.10;99.90;;;;;;5031975;28;20035;-74
2022/03/05 10:09:40;;;;;;;21.90;16.15;;;3.10;99.90;;;;;;5031924;28;20033;-75
2022/03/05 10:12:30;;;;;;;19.52;15.20;;;3.10;99.90;;;;;;5031675;28;20033;-74
2022/03/05 10:15:03;;;;;;;19.80;15.50;;;3.30;99.90;;;;;;5033212;28;20053;-74
2022/03/05 10:17:29;;;;;;;18.67;14.52;;;3.40;99.90;;;;;;5033440;28;20029;-75
2022/03/05 10:20:05;;;;;;;19.45;15.68;;;3.40;99.90;;;;;;5033000;28;20025;-75
2022/03/05 10:22:31;;;;;;;18.83;15.20;;;3.50;99.90;;;;;;5032976;28;20040;-74
2022/03/05 10:24:57;;;;;;;20.02;15.30;;;3.70;99.90;;;;;;5019392;28;20396;-75
2022/03/05 10:27:23;;;;;;;18.30;14.15;;;3.80;99.90;;;;;;5013263;28;20105;-75
2022/03/05 10:29:55;;;;;;;19.88;14.73;;;3.70;99.90;;;;;;5017342;28;20123;-74
2022/03/05 10:32:21;;;;;;;20.90;14.85;;;3.90;99.90;;;;;;5022086;28;20030;-74
2022/03/05 10:34:50;;;;;;;18.77;14.57;;;3.90;99.90;;;;;;5012932;28;20076;-74
2022/03/05 10:37:17;;;;;;;21.50;16.38;;;3.90;99.90;;;;;;5013076;28;20014;-74
2022/03/05 10:39:43;;;;;;;19.95;15.07;;;4.00;99.90;;;;;;5018221;28;20029;-74
2022/03/05 10:42:23;;;;;;;19.70;14.73;;;4.10;99.90;;;;;;5020116;28;20033;-74
2022/03/05 10:44:59;;;;;;;18.65;14.48;;;3.90;99.90;;;;;;5020375;28;20026;-74
2022/03/05 10:47:24;;;;;;;20.95;15.35;;;4.00;99.90;;;;;;5013808;28;20125;-74
2022/03/05 10:49:50;;;;;;;19.42;14.25;;;3.90;99.90;;;;;;5031294;28;20116;-74
2022/03/05 10:52:15;;;;;;;18.00;14.20;;;3.80;99.90;;;;;;5030224;28;20033;-75
2022/03/05 10:54:43;;;;;;;18.40;14.32;;;3.80;99.90;;;;;;5011379;28;20030;-74
2022/03/05 10:57:22;;;;;;;20.17;14.82;;;3.90;99.90;;;;;;5012945;28;20030;-75
2022/03/05 10:59:50;;;;;;;19.38;14.18;;;3.90;99.90;;;;;;5011195;28;20028;-74
2022/03/05 11:02:19;;;;;;;18.73;13.95;;;3.80;99.90;;;;;;5025930;28;20417;-74
2022/03/05 11:04:45;;;;;;;19.40;14.20;;;4.10;99.90;;;;;;5023332;28;20049;-74
2022/03/05 11:07:19;;;;;;;22.55;14.55;;;4.40;99.90;;;;;;5019173;28;20069;-75
2022/03/05 11:09:47;;;;;;;18.30;15.32;;;4.50;99.90;;;;;;5020538;28;20053;-74
2022/03/05 11:12:21;;;;;;;20.55;15.05;;;4.60;99.90;;;;;;5025757;28;20475;-75
2022/03/05 11:14:48;;;;;;;17.77;14.05;;;4.90;99.90;;;;;;5024543;28;20120;-75
2022/03/05 11:17:14;;;;;;;17.02;13.43;;;5.00;99.90;;;;;;5006460;28;20390;-74
2022/03/05 11:19:39;;;;;;;16.77;13.18;;;4.80;99.90;;;;;;5018872;28;20026;-74
2022/03/05 11:22:06;;;;;;;14.98;11.10;;;4.80;99.90;;;;;;5017844;28;20376;-75
2022/03/05 11:24:32;;;;;;;19.90;12.13;;;4.70;99.90;;;;;;5030882;28;20554;-76
2022/03/05 11:26:58;;;;;;;14.52;11.98;;;4.60;99.90;;;;;;5012291;28;20038;-75
2022/03/05 11:29:28;;;;;;;14.20;11.05;;;4.40;99.90;;;;;;5027019;28;20120;-75
2022/03/05 11:32:11;;;;;;;9.40;7.32;;;4.30;99.90;;;;;;5023509;28;20061;-75
2022/03/05 11:34:48;;;;;;;13.63;9.63;;;4.50;99.90;;;;;;5016548;28;20018;-75
2022/03/05 11:37:33;;;;;;;11.57;9.45;;;4.60;99.90;;;;;;5019557;28;20021;-78
2022/03/05 11:40:00;;;;;;;11.57;9.32;;;4.70;99.90;;;;;;5009310;28;20017;-76
2022/03/05 11:42:34;;;;;;;13.15;8.93;;;4.70;99.90;;;;;;5028727;28;20068;-75
2022/03/05 11:45:21;;;;;;;12.10;9.77;;;4.70;99.90;;;;;;5022676;28;20021;-76
2022/03/05 11:47:46;;;;;;;14.02;10.57;;;4.80;99.90;;;;;;5005649;28;20033;-74
2022/03/05 11:50:15;;;;;;;16.15;10.13;;;4.90;99.90;;;;;;5026653;28;20037;-76
2022/03/05 11:52:41;;;;;;;10.73;8.60;;;5.00;99.90;;;;;;5017910;28;20044;-75
2022/03/05 11:55:16;;;;;;;10.52;8.45;;;4.80;99.90;;;;;;5025690;28;20026;-76
2022/03/05 11:58:03;;;;;;;15.55;11.98;;;5.00;99.90;;;;;;5020603;28;20499;-74
2022/03/05 12:00:29;;;;;;;;;;;5.10;99.90;;;;;;5011413;28;20551;-75
2022/03/05 12:02:55;;;;;;;7.45;6.50;;;5.20;99.90;;;;;;5028022;28;19940;-74
2022/03/05 12:05:36;;;;;;;12.48;8.95;;;5.00;99.90;;;;;;5016360;28;20026;-75
2022/03/05 12:08:05;;;;;;;10.18;7.05;;;5.00;99.90;;;;;;5027412;28;20105;-75
2022/03/05 12:10:31;;;;;;;11.63;8.35;;;5.10;99.90;;;;;;5025408;28;20026;-77
2022/03/05 12:12:59;;;;;;;9.27;7.10;;;5.50;99.90;;;;;;5027781;28;20052;-74
2022/03/05 12:15:38;;;;;;;8.23;6.57;;;5.40;99.90;;;;;;5022946;28;20018;-74
2022/03/05 12:18:08;;;;;;;8.70;6.35;;;5.30;99.90;;;;;;5020089;28;20044;-75
2022/03/05 12:20:36;;;;;;;7.70;6.15;;;5.30;99.90;;;;;;5022274;28;20456;-75
2022/03/05 12:23:19;;;;;;;7.57;6.43;;;5.60;99.90;;;;;;5021937;28;20406;-75
2022/03/05 12:25:47;;;;;;;8.15;6.68;;;5.70;99.90;;;;;;5021881;28;20383;-73
2022/03/05 12:28:19;;;;;;;7.88;6.55;;;6.40;99.40;;;;;;5022999;28;20453;-73
2022/03/05 12:30:45;;;;;;;7.65;6.22;;;6.10;99.30;;;;;;5022778;28;20025;-73